sensor_id;sensor_type;location;lat;lon;timestamp;P1;P2;P0
56495;PMS5003;42804;55.762;38.084;2022-08-06T06:27:24;26.50;26.00;18.50
56495;PMS5003;42804;55.762;38.084;2022-08-06T06:30:15;29.00;28.00;20.50
56495;PMS5003;42804;55.762;38.084;2022-08-06T06:33:06;19.25;19.25;14.75
56495;PMS5003;42804;55.762;38.084;2022-08-06T06:35:41;25.25;23.75;17.50
56495;PMS5003;42804;55.762;38.084;2022-08-06T06:38:24;32.00;30.00;20.75
56495;PMS5003;42804;55.762;38.084;2022-08-06T06:40:56;20.75;19.50;15.00
56495;PMS5003;42804;55.762;38.084;2022-08-06T06:43:47;18.50;17.75;12.75
56495;PMS5003;42804;55.762;38.084;2022-08-06T06:46:21;20.25;20.00;16.00
56495;PMS5003;42804;55.762;38.084;2022-08-06T06:49:09;18.25;18.00;14.25
56495;PMS5003;42804;55.762;38.084;2022-08-06T06:51:59;20.00;19.50;14.50
56495;PMS5003;42804;55.762;38.084;2022-08-06T06:54:36;19.50;18.00;15.00
56495;PMS5003;42804;55.762;38.084;2022-08-06T06:57:05;18.00;17.50;15.00
56495;PMS5003;42804;55.762;38.084;2022-08-06T06:59:38;18.50;18.25;15.50
56495;PMS5003;42804;55.762;38.084;2022-08-06T07:02:30;18.50;17.75;13.00
56495;PMS5003;42804;55.762;38.084;2022-08-06T07:05:00;17.75;16.00;10.00
56495;PMS5003;42804;55.762;38.084;2022-08-06T07:07:30;17.75;17.75;13.25
56495;PMS5003;42804;55.762;38.084;2022-08-06T07:10:00;20.25;19.50;14.75
56495;PMS5003;42804;55.762;38.084;2022-08-06T07:12:29;17.50;16.75;12.50
56495;PMS5003;42804;55.762;38.084;2022-08-06T07:15:02;19.75;19.25;13.75
56495;PMS5003;42804;55.762;38.084;2022-08-06T07:17:40;17.25;15.50;11.25
56495;PMS5003;42804;55.762;38.084;2022-08-06T07:20:29;18.50;17.75;14.00
56495;PMS5003;42804;55.762;38.084;2022-08-06T07:22:59;16.25;16.00;12.00
56495;PMS5003;42804;55.762;38.084;2022-08-06T07:25:48;15.75;15.25;12.50
56495;PMS5003;42804;55.762;38.084;2022-08-06T07:28:21;16.75;15.25;11.75
56495;PMS5003;42804;55.762;38.084;2022-08-06T07:30:56;18.75;18.25;14.50
56495;PMS5003;42804;55.762;38.084;2022-08-06T07:33:34;14.50;14.00;10.50
56495;PMS5003;42804;55.762;38.084;2022-08-06T07:36:24;17.50;16.75;12.25
56495;PMS5003;42804;55.762;38.084;2022-08-06T07:38:55;20.25;20.25;14.75
56495;PMS5003;42804;55.762;38.084;2022-08-06T07:41:26;22.00;21.25;16.25
56495;PMS5003;42804;55.762;38.084;2022-08-06T07:44:15;21.25;21.25;15.50
56495;PMS5003;42804;55.762;38.084;2022-08-06T07:46:54;20.25;19.75;13.25
56495;PMS5003;42804;55.762;38.084;2022-08-06T07:49:25;17.00;17.00;13.25
56495;PMS5003;42804;55.762;38.084;2022-08-06T07:52:14;18.00;18.00;14.00
56495;PMS5003;42804;55.762;38.084;2022-08-06T07:54:43;17.00;17.00;13.25
56495;PMS5003;42804;55.762;38.084;2022-08-06T07:57:12;19.25;18.75;13.75
56495;PMS5003;42804;55.762;38.084;2022-08-06T07:59:51;20.00;20.00;15.00
56495;PMS5003;42804;55.762;38.084;2022-08-06T08:02:23;20.00;19.50;15.25
56495;PMS5003;42804;55.762;38.084;2022-08-06T08:04:56;12.25;11.75;9.00
56495;PMS5003;42804;55.762;38.084;2022-08-06T08:07:42;20.00;19.00;14.00
56495;PMS5003;42804;55.762;38.084;2022-08-06T08:10:23;20.00;19.75;15.00
56495;PMS5003;42804;55.762;38.084;2022-08-06T08:12:55;19.50;18.00;14.00
56495;PMS5003;42804;55.762;38.084;2022-08-06T08:15:29;16.25;16.25;11.50
56495;PMS5003;42804;55.762;38.084;2022-08-06T08:18:02;16.25;16.25;11.00
56495;PMS5003;42804;55.762;38.084;2022-08-06T08:20:31;16.75;16.75;13.25
56495;PMS5003;42804;55.762;38.084;2022-08-06T08:23:02;18.00;18.00;12.50
56495;PMS5003;42804;55.762;38.084;2022-08-06T08:25:34;16.25;16.25;13.25
56495;PMS5003;42804;55.762;38.084;2022-08-06T08:28:09;16.50;16.00;12.25
56495;PMS5003;42804;55.762;38.084;2022-08-06T08:30:43;18.50;18.25;14.25
56495;PMS5003;42804;55.762;38.084;2022-08-06T08:33:17;18.25;18.25;13.50
56495;PMS5003;42804;55.762;38.084;2022-08-06T08:35:45;19.00;18.00;14.00
56495;PMS5003;42804;55.762;38.084;2022-08-06T08:38:20;17.25;17.25;13.00
56495;PMS5003;42804;55.762;38.084;2022-08-06T08:40:54;26.25;24.25;18.00
56495;PMS5003;42804;55.762;38.084;2022-08-06T08:43:25;17.75;17.75;13.00
56495;PMS5003;42804;55.762;38.084;2022-08-06T08:46:17;16.25;15.50;12.25
56495;PMS5003;42804;55.762;38.084;2022-08-06T08:49:00;18.00;17.25;12.25
56495;PMS5003;42804;55.762;38.084;2022-08-06T08:51:31;19.50;19.25;14.50
56495;PMS5003;42804;55.762;38.084;2022-08-06T08:54:08;19.00;19.00;15.75
56495;PMS5003;42804;55.762;38.084;2022-08-06T08:56:42;20.00;19.00;14.00
56495;PMS5003;42804;55.762;38.084;2022-08-06T08:59:32;16.50;16.25;13.50
56495;PMS5003;42804;55.762;38.084;2022-08-06T09:02:20;16.50;16.50;14.00
56495;PMS5003;42804;55.762;38.084;2022-08-06T09:04:52;17.00;15.75;12.75
56495;PMS5003;42804;55.762;38.084;2022-08-06T09:07:24;14.25;14.00;11.00
56495;PMS5003;42804;55.762;38.084;2022-08-06T09:10:03;18.50;16.50;11.75
56495;PMS5003;42804;55.762;38.084;2022-08-06T09:12:31;14.75;14.75;11.00
56495;PMS5003;42804;55.762;38.084;2022-08-06T09:15:12;12.25;12.25;10.00
56495;PMS5003;42804;55.762;38.084;2022-08-06T09:17:43;18.00;17.75;13.00
56495;PMS5003;42804;55.762;38.084;2022-08-06T09:20:35;15.50;15.25;11.50
56495;PMS5003;42804;55.762;38.084;2022-08-06T09:23:11;14.00;13.25;11.25
56495;PMS5003;42804;55.762;38.084;2022-08-06T09:25:41;17.50;17.25;12.75
56495;PMS5003;42804;55.762;38.084;2022-08-06T09:28:26;19.75;19.00;13.50
56495;PMS5003;42804;55.762;38.084;2022-08-06T09:30:59;15.25;15.25;11.75
56495;PMS5003;42804;55.762;38.084;2022-08-06T09:33:27;17.25;16.75;12.75
56495;PMS5003;42804;55.762;38.084;2022-08-06T09:36:17;16.00;16.00;12.50
56495;PMS5003;42804;55.762;38.084;2022-08-06T09:38:57;13.50;13.50;11.00
56495;PMS5003;42804;55.762;38.084;2022-08-06T09:41:27;17.00;17.00;13.25
56495;PMS5003;42804;55.762;38.084;2022-08-06T09:43:56;15.50;15.25;12.00
56495;PMS5003;42804;55.762;38.084;2022-08-06T09:46:37;15.00;14.50;10.00
56495;PMS5003;42804;55.762;38.084;2022-08-06T09:49:06;16.75;16.50;12.25
56495;PMS5003;42804;55.762;38.084;2022-08-06T09:52:12;17.00;17.00;14.00
56495;PMS5003;42804;55.762;38.084;2022-08-06T09:54:43;17.00;17.00;13.00
56495;PMS5003;42804;55.762;38.084;2022-08-06T09:57:12;23.75;23.50;17.00
56495;PMS5003;42804;55.762;38.084;2022-08-06T09:59:41;15.00;14.50;10.75
56495;PMS5003;42804;55.762;38.084;2022-08-06T10:02:13;18.00;17.75;13.75
56495;PMS5003;42804;55.762;38.084;2022-08-06T10:04:41;14.00;13.50;10.50
56495;PMS5003;42804;55.762;38.084;2022-08-06T10:07:11;13.50;13.00;9.50
56495;PMS5003;42804;55.762;38.084;2022-08-06T10:09:50;17.00;16.50;13.00
56495;PMS5003;42804;55.762;38.084;2022-08-06T10:12:19;16.75;16.50;12.75
56495;PMS5003;42804;55.762;38.084;2022-08-06T10:14:52;19.25;18.00;13.25
56495;PMS5003;42804;55.762;38.084;2022-08-06T10:17:22;18.25;18.00;13.00
56495;PMS5003;42804;55.762;38.084;2022-08-06T10:20:04;16.00;16.00;12.00
56495;PMS5003;42804;55.762;38.084;2022-08-06T10:22:37;17.25;16.75;11.50
56495;PMS5003;42804;55.762;38.084;2022-08-06T10:25:16;16.00;15.50;12.25
56495;PMS5003;42804;55.762;38.084;2022-08-06T10:27:55;16.00;16.00;12.00
56495;PMS5003;42804;55.762;38.084;2022-08-06T10:30:24;18.50;17.25;13.00
56495;PMS5003;42804;55.762;38.084;2022-08-06T10:33:02;16.75;16.75;13.00
56495;PMS5003;42804;55.762;38.084;2022-08-06T10:35:43;18.25;17.25;13.00
56495;PMS5003;42804;55.762;38.084;2022-08-06T10:38:16;18.00;17.00;13.00
56495;PMS5003;42804;55.762;38.084;2022-08-06T10:41:05;17.75;16.25;13.25
56495;PMS5003;42804;55.762;38.084;2022-08-06T10:43:55;17.25;17.00;13.75
56495;PMS5003;42804;55.762;38.084;2022-08-06T10:46:23;15.25;15.00;12.00
56495;PMS5003;42804;55.762;38.084;2022-08-06T10:48:51;15.00;14.75;11.25
56495;PMS5003;42804;55.762;38.084;2022-08-06T10:51:41;15.75;15.75;12.00
56495;PMS5003;42804;55.762;38.084;2022-08-06T10:54:26;18.50;17.50;13.00
56495;PMS5003;42804;55.762;38.084;2022-08-06T10:56:54;13.25;13.25;10.00
56495;PMS5003;42804;55.762;38.084;2022-08-06T10:59:27;16.75;16.75;13.00
56495;PMS5003;42804;55.762;38.084;2022-08-06T11:02:09;18.50;18.00;14.00
56495;PMS5003;42804;55.762;38.084;2022-08-06T11:04:45;18.25;17.00;13.75
56495;PMS5003;42804;55.762;38.084;2022-08-06T11:07:34;12.25;12.25;9.00
56495;PMS5003;42804;55.762;38.084;2022-08-06T11:10:31;13.25;13.25;10.00
56495;PMS5003;42804;55.762;38.084;2022-08-06T11:13:05;14.75;14.75;12.50
56495;PMS5003;42804;55.762;38.084;2022-08-06T11:15:37;18.00;18.00;14.75
56495;PMS5003;42804;55.762;38.084;2022-08-06T11:18:09;19.25;18.75;15.00
56495;PMS5003;42804;55.762;38.084;2022-08-06T11:20:41;18.75;17.75;13.50
56495;PMS5003;42804;55.762;38.084;2022-08-06T11:23:24;17.25;16.75;14.50
56495;PMS5003;42804;55.762;38.084;2022-08-06T11:26:14;17.50;17.50;13.00
56495;PMS5003;42804;55.762;38.084;2022-08-06T11:29:04;15.75;15.75;12.25
56495;PMS5003;42804;55.762;38.084;2022-08-06T11:31:37;14.75;14.50;12.50
56495;PMS5003;42804;55.762;38.084;2022-08-06T11:34:22;18.50;18.00;14.25
56495;PMS5003;42804;55.762;38.084;2022-08-06T11:40:20;18.00;17.25;14.00
56495;PMS5003;42804;55.762;38.084;2022-08-06T11:42:52;24.50;24.25;18.75
56495;PMS5003;42804;55.762;38.084;2022-08-06T11:45:21;17.50;17.00;13.00
56495;PMS5003;42804;55.762;38.084;2022-08-06T11:48:10;17.50;17.25;14.00
56495;PMS5003;42804;55.762;38.084;2022-08-06T11:51:09;15.75;15.75;13.00
56495;PMS5003;42804;55.762;38.084;2022-08-06T11:54:08;16.75;16.00;13.75
56495;PMS5003;42804;55.762;38.084;2022-08-06T11:56:40;19.25;19.25;15.00
56495;PMS5003;42804;55.762;38.084;2022-08-06T11:59:31;14.00;14.00;12.00
56495;PMS5003;42804;55.762;38.084;2022-08-06T12:02:04;17.00;16.00;13.00
56495;PMS5003;42804;55.762;38.084;2022-08-06T12:04:38;18.00;18.00;13.25
56495;PMS5003;42804;55.762;38.084;2022-08-06T12:07:19;20.25;20.00;15.25
56495;PMS5003;42804;55.762;38.084;2022-08-06T12:09:59;18.00;18.00;14.00
56495;PMS5003;42804;55.762;38.084;2022-08-06T12:12:36;20.00;18.00;15.50
56495;PMS5003;42804;55.762;38.084;2022-08-06T12:18:15;18.75;17.75;14.00
56495;PMS5003;42804;55.762;38.084;2022-08-06T12:20:57;14.25;14.25;11.75
56495;PMS5003;42804;55.762;38.084;2022-08-06T12:23:26;16.25;16.25;13.00
56495;PMS5003;42804;55.762;38.084;2022-08-06T12:26:14;18.50;18.00;15.25
56495;PMS5003;42804;55.762;38.084;2022-08-06T12:29:05;12.75;12.75;8.50
56495;PMS5003;42804;55.762;38.084;2022-08-06T12:31:35;17.00;17.00;14.00
56495;PMS5003;42804;55.762;38.084;2022-08-06T12:34:24;15.75;15.75;13.50
56495;PMS5003;42804;55.762;38.084;2022-08-06T12:36:56;15.00;14.25;11.75
56495;PMS5003;42804;55.762;38.084;2022-08-06T12:39:25;14.25;14.25;11.25
56495;PMS5003;42804;55.762;38.084;2022-08-06T12:42:22;15.25;13.50;10.00
56495;PMS5003;42804;55.762;38.084;2022-08-06T12:45:10;15.00;15.00;11.75
56495;PMS5003;42804;55.762;38.084;2022-08-06T12:47:59;16.25;15.75;13.00
56495;PMS5003;42804;55.762;38.084;2022-08-06T12:50:39;18.00;17.25;13.50
56495;PMS5003;42804;55.762;38.084;2022-08-06T12:53:09;18.00;17.50;13.00
56495;PMS5003;42804;55.762;38.084;2022-08-06T12:55:42;17.50;17.25;13.50
56495;PMS5003;42804;55.762;38.084;2022-08-06T12:58:11;17.25;17.25;13.50
56495;PMS5003;42804;55.762;38.084;2022-08-06T13:01:00;10.75;10.00;5.50
56495;PMS5003;42804;55.762;38.084;2022-08-06T13:03:33;18.25;17.50;13.75
56495;PMS5003;42804;55.762;38.084;2022-08-06T13:06:04;18.00;18.00;14.50
56495;PMS5003;42804;55.762;38.084;2022-08-06T13:08:54;19.00;18.25;14.75
56495;PMS5003;42804;55.762;38.084;2022-08-06T13:11:31;18.00;17.75;12.25
56495;PMS5003;42804;55.762;38.084;2022-08-06T13:14:09;17.50;17.50;13.25
56495;PMS5003;42804;55.762;38.084;2022-08-06T13:16:45;20.25;19.50;15.50
56495;PMS5003;42804;55.762;38.084;2022-08-06T13:19:22;17.25;16.75;13.50
56495;PMS5003;42804;55.762;38.084;2022-08-06T13:22:06;17.00;17.00;14.00
56495;PMS5003;42804;55.762;38.084;2022-08-06T13:24:44;13.50;13.50;10.00
56495;PMS5003;42804;55.762;38.084;2022-08-06T13:27:32;18.25;17.75;11.25
56495;PMS5003;42804;55.762;38.084;2022-08-06T13:30:02;14.50;13.75;12.25
56495;PMS5003;42804;55.762;38.084;2022-08-06T13:32:51;19.25;18.50;13.75
56495;PMS5003;42804;55.762;38.084;2022-08-06T13:35:24;16.25;16.25;13.25
56495;PMS5003;42804;55.762;38.084;2022-08-06T13:37:59;20.25;19.75;15.00
56495;PMS5003;42804;55.762;38.084;2022-08-06T13:40:42;19.75;17.75;12.75
56495;PMS5003;42804;55.762;38.084;2022-08-06T13:43:16;19.75;19.00;14.00
56495;PMS5003;42804;55.762;38.084;2022-08-06T13:46:05;18.00;17.00;11.75
56495;PMS5003;42804;55.762;38.084;2022-08-06T13:48:43;18.75;18.75;14.50
56495;PMS5003;42804;55.762;38.084;2022-08-06T13:51:12;21.00;19.75;14.00
56495;PMS5003;42804;55.762;38.084;2022-08-06T13:53:55;22.50;21.25;16.50
56495;PMS5003;42804;55.762;38.084;2022-08-06T13:56:29;16.75;16.75;12.00
56495;PMS5003;42804;55.762;38.084;2022-08-06T13:59:01;19.25;19.25;14.00
56495;PMS5003;42804;55.762;38.084;2022-08-06T14:01:30;21.50;21.50;15.75
56495;PMS5003;42804;55.762;38.084;2022-08-06T14:04:12;17.75;17.75;16.00
56495;PMS5003;42804;55.762;38.084;2022-08-06T14:06:40;20.00;19.00;14.50
56495;PMS5003;42804;55.762;38.084;2022-08-06T14:09:13;17.50;17.50;15.00
56495;PMS5003;42804;55.762;38.084;2022-08-06T14:11:46;20.25;19.75;13.50
56495;PMS5003;42804;55.762;38.084;2022-08-06T14:14:16;21.25;21.25;16.25
56495;PMS5003;42804;55.762;38.084;2022-08-06T14:16:48;20.75;20.75;17.00
56495;PMS5003;42804;55.762;38.084;2022-08-06T14:19:16;23.50;23.00;16.50
56495;PMS5003;42804;55.762;38.084;2022-08-06T14:22:05;26.25;24.25;18.00
56495;PMS5003;42804;55.762;38.084;2022-08-06T14:24:35;25.50;25.50;18.25
56495;PMS5003;42804;55.762;38.084;2022-08-06T14:27:05;29.50;28.25;20.00
56495;PMS5003;42804;55.762;38.084;2022-08-06T14:29:41;31.00;29.50;20.00
56495;PMS5003;42804;55.762;38.084;2022-08-06T14:32:29;24.75;24.75;16.75
56495;PMS5003;42804;55.762;38.084;2022-08-06T14:34:58;22.50;22.50;16.50
56495;PMS5003;42804;55.762;38.084;2022-08-06T14:37:31;19.50;19.50;14.00
56495;PMS5003;42804;55.762;38.084;2022-08-06T14:40:19;26.25;25.50;20.00
56495;PMS5003;42804;55.762;38.084;2022-08-06T14:43:28;25.50;25.25;16.75
56495;PMS5003;42804;55.762;38.084;2022-08-06T14:46:23;21.50;19.75;11.75
56495;PMS5003;42804;55.762;38.084;2022-08-06T14:48:52;27.50;26.75;19.00
56495;PMS5003;42804;55.762;38.084;2022-08-06T14:51:24;29.50;29.50;20.00
56495;PMS5003;42804;55.762;38.084;2022-08-06T14:54:12;31.00;29.00;20.25
56495;PMS5003;42804;55.762;38.084;2022-08-06T14:56:42;27.50;25.75;19.50
56495;PMS5003;42804;55.762;38.084;2022-08-06T14:59:18;27.00;27.00;21.25
56495;PMS5003;42804;55.762;38.084;2022-08-06T15:01:47;30.25;30.00;20.25
56495;PMS5003;42804;55.762;38.084;2022-08-06T15:04:16;26.25;26.25;19.75
56495;PMS5003;42804;55.762;38.084;2022-08-06T15:06:50;31.25;30.00;20.25
56495;PMS5003;42804;55.762;38.084;2022-08-06T15:09:20;29.00;28.25;20.00
56495;PMS5003;42804;55.762;38.084;2022-08-06T15:12:09;22.25;22.00;16.00
56495;PMS5003;42804;55.762;38.084;2022-08-06T15:14:40;26.25;26.00;18.75
56495;PMS5003;42804;55.762;38.084;2022-08-06T15:17:16;18.75;17.50;14.00
56495;PMS5003;42804;55.762;38.084;2022-08-06T15:20:04;25.00;23.50;17.50
56495;PMS5003;42804;55.762;38.084;2022-08-06T15:22:34;23.00;20.75;16.00
56495;PMS5003;42804;55.762;38.084;2022-08-06T15:25:05;27.00;26.25;18.75
56495;PMS5003;42804;55.762;38.084;2022-08-06T15:27:56;25.25;24.75;17.75
56495;PMS5003;42804;55.762;38.084;2022-08-06T15:30:24;25.75;24.25;16.25
56495;PMS5003;42804;55.762;38.084;2022-08-06T15:32:53;20.25;20.00;15.00
56495;PMS5003;42804;55.762;38.084;2022-08-06T15:35:23;23.00;22.75;17.50
56495;PMS5003;42804;55.762;38.084;2022-08-06T15:38:09;24.75;24.75;17.50
56495;PMS5003;42804;55.762;38.084;2022-08-06T15:40:41;19.75;19.75;15.50
56495;PMS5003;42804;55.762;38.084;2022-08-06T15:43:11;23.75;23.00;17.75
56495;PMS5003;42804;55.762;38.084;2022-08-06T15:45:39;26.75;25.75;18.00
56495;PMS5003;42804;55.762;38.084;2022-08-06T15:48:17;23.50;22.50;17.75
56495;PMS5003;42804;55.762;38.084;2022-08-06T15:50:55;20.75;20.50;15.75
56495;PMS5003;42804;55.762;38.084;2022-08-06T15:53:43;24.75;23.00;18.00
56495;PMS5003;42804;55.762;38.084;2022-08-06T15:56:23;21.00;20.50;15.00
56495;PMS5003;42804;55.762;38.084;2022-08-06T15:59:13;24.50;22.75;17.00
56495;PMS5003;42804;55.762;38.084;2022-08-06T16:01:46;21.00;20.50;15.75
56495;PMS5003;42804;55.762;38.084;2022-08-06T16:04:30;23.50;23.00;18.75
56495;PMS5003;42804;55.762;38.084;2022-08-06T16:07:03;23.75;23.25;18.50
56495;PMS5003;42804;55.762;38.084;2022-08-06T16:09:31;29.00;29.00;20.00
56495;PMS5003;42804;55.762;38.084;2022-08-06T16:12:19;28.50;28.00;19.75
56495;PMS5003;42804;55.762;38.084;2022-08-06T16:14:49;27.25;26.75;19.75
56495;PMS5003;42804;55.762;38.084;2022-08-06T16:17:22;24.00;23.75;17.25
56495;PMS5003;42804;55.762;38.084;2022-08-06T16:20:10;23.75;23.50;17.50
56495;PMS5003;42804;55.762;38.084;2022-08-06T16:22:48;24.00;24.00;18.00
56495;PMS5003;42804;55.762;38.084;2022-08-06T16:25:18;28.75;28.00;20.00
56495;PMS5003;42804;55.762;38.084;2022-08-06T16:27:48;26.00;26.00;20.00
56495;PMS5003;42804;55.762;38.084;2022-08-06T16:30:19;26.25;25.25;18.00
56495;PMS5003;42804;55.762;38.084;2022-08-06T16:32:49;26.00;25.75;18.00
56495;PMS5003;42804;55.762;38.084;2022-08-06T16:35:17;25.75;25.75;18.00
56495;PMS5003;42804;55.762;38.084;2022-08-06T16:37:48;25.75;24.25;18.25
56495;PMS5003;42804;55.762;38.084;2022-08-06T16:40:18;26.25;25.50;17.75
56495;PMS5003;42804;55.762;38.084;2022-08-06T16:42:47;27.25;26.75;20.00
56495;PMS5003;42804;55.762;38.084;2022-08-06T16:45:15;27.50;26.75;19.00
56495;PMS5003;42804;55.762;38.084;2022-08-06T16:47:46;25.25;23.75;17.25
56495;PMS5003;42804;55.762;38.084;2022-08-06T16:50:34;28.00;27.00;19.75
56495;PMS5003;42804;55.762;38.084;2022-08-06T16:53:06;26.00;25.50;18.75
56495;PMS5003;42804;55.762;38.084;2022-08-06T16:55:55;26.00;25.75;18.50
56495;PMS5003;42804;55.762;38.084;2022-08-06T16:58:23;25.00;25.00;19.50
56495;PMS5003;42804;55.762;38.084;2022-08-06T17:01:10;24.00;23.25;18.50
56495;PMS5003;42804;55.762;38.084;2022-08-06T17:03:59;24.75;24.00;18.25
56495;PMS5003;42804;55.762;38.084;2022-08-06T17:06:29;27.50;25.50;18.25
56495;PMS5003;42804;55.762;38.084;2022-08-06T17:09:02;20.25;19.50;17.00
56495;PMS5003;42804;55.762;38.084;2022-08-06T17:11:45;37.00;33.00;24.00
56495;PMS5003;42804;55.762;38.084;2022-08-06T17:14:24;34.50;32.00;23.00
56495;PMS5003;42804;55.762;38.084;2022-08-06T17:17:13;21.75;21.75;16.00
56495;PMS5003;42804;55.762;38.084;2022-08-06T17:19:42;26.50;26.50;19.75
56495;PMS5003;42804;55.762;38.084;2022-08-06T17:22:28;27.25;25.25;19.75
56495;PMS5003;42804;55.762;38.084;2022-08-06T17:24:56;25.75;25.00;18.25
56495;PMS5003;42804;55.762;38.084;2022-08-06T17:27:25;26.50;25.50;20.00
56495;PMS5003;42804;55.762;38.084;2022-08-06T17:30:11;28.75;27.75;22.00
56495;PMS5003;42804;55.762;38.084;2022-08-06T17:32:42;25.75;25.75;18.25
56495;PMS5003;42804;55.762;38.084;2022-08-06T17:35:14;30.00;27.50;20.25
56495;PMS5003;42804;55.762;38.084;2022-08-06T17:37:43;23.25;23.25;18.50
56495;PMS5003;42804;55.762;38.084;2022-08-06T17:40:12;29.25;28.50;20.00
56495;PMS5003;42804;55.762;38.084;2022-08-06T17:42:57;30.50;29.50;21.50
56495;PMS5003;42804;55.762;38.084;2022-08-06T17:45:31;28.25;27.25;20.25
56495;PMS5003;42804;55.762;38.084;2022-08-06T17:48:00;30.50;28.25;20.00
56495;PMS5003;42804;55.762;38.084;2022-08-06T17:50:30;30.00;28.75;20.00
56495;PMS5003;42804;55.762;38.084;2022-08-06T17:53:08;31.75;30.75;22.25
56495;PMS5003;42804;55.762;38.084;2022-08-06T17:55:47;32.00;29.25;21.00
56495;PMS5003;42804;55.762;38.084;2022-08-06T17:58:27;32.00;29.75;21.50
56495;PMS5003;42804;55.762;38.084;2022-08-06T18:01:05;27.75;26.00;20.00
56495;PMS5003;42804;55.762;38.084;2022-08-06T18:03:43;31.25;30.00;21.25
56495;PMS5003;42804;55.762;38.084;2022-08-06T18:06:19;30.25;29.25;21.00
56495;PMS5003;42804;55.762;38.084;2022-08-06T18:08:55;34.25;32.00;22.00
56495;PMS5003;42804;55.762;38.084;2022-08-06T18:11:24;37.25;33.00;23.00
56495;PMS5003;42804;55.762;38.084;2022-08-06T18:13:54;33.00;31.00;21.50
56495;PMS5003;42804;55.762;38.084;2022-08-06T18:16:23;33.75;32.00;22.50
56495;PMS5003;42804;55.762;38.084;2022-08-06T18:18:55;34.50;31.75;22.25
56495;PMS5003;42804;55.762;38.084;2022-08-06T18:21:25;33.75;32.25;22.00
56495;PMS5003;42804;55.762;38.084;2022-08-06T18:23:55;36.25;32.75;22.25
56495;PMS5003;42804;55.762;38.084;2022-08-06T18:26:27;29.75;29.00;21.00
56495;PMS5003;42804;55.762;38.084;2022-08-06T18:28:59;36.50;33.50;24.50
56495;PMS5003;42804;55.762;38.084;2022-08-06T18:31:32;37.75;34.50;24.00
56495;PMS5003;42804;55.762;38.084;2022-08-06T18:34:22;44.25;38.25;25.25
56495;PMS5003;42804;55.762;38.084;2022-08-06T18:36:57;35.25;32.50;23.50
56495;PMS5003;42804;55.762;38.084;2022-08-06T18:39:45;41.00;35.75;24.00
56495;PMS5003;42804;55.762;38.084;2022-08-06T18:42:33;39.25;34.50;24.00
56495;PMS5003;42804;55.762;38.084;2022-08-06T18:45:08;41.00;36.00;25.75
56495;PMS5003;42804;55.762;38.084;2022-08-06T18:47:40;39.50;35.00;24.00
56495;PMS5003;42804;55.762;38.084;2022-08-06T18:50:08;36.00;33.00;23.00
56495;PMS5003;42804;55.762;38.084;2022-08-06T18:52:39;35.00;32.00;24.25
56495;PMS5003;42804;55.762;38.084;2022-08-06T18:55:10;38.00;34.00;25.25
56495;PMS5003;42804;55.762;38.084;2022-08-06T18:57:43;37.50;34.50;24.25
56495;PMS5003;42804;55.762;38.084;2022-08-06T19:00:31;34.50;31.75;22.50
56495;PMS5003;42804;55.762;38.084;2022-08-06T19:03:00;38.75;34.75;24.00
56495;PMS5003;42804;55.762;38.084;2022-08-06T19:05:36;52.80;44.20;30.80
56495;PMS5003;42804;55.762;38.084;2022-08-06T19:08:12;49.00;42.00;29.00
56495;PMS5003;42804;55.762;38.084;2022-08-06T19:10:55;55.20;46.00;31.00
56495;PMS5003;42804;55.762;38.084;2022-08-06T19:13:31;59.20;49.00;33.60
56495;PMS5003;42804;55.762;38.084;2022-08-06T19:16:19;56.80;47.00;31.40
56495;PMS5003;42804;55.762;38.084;2022-08-06T19:18:51;49.40;41.60;26.80
56495;PMS5003;42804;55.762;38.084;2022-08-06T19:21:24;51.00;43.00;29.00
56495;PMS5003;42804;55.762;38.084;2022-08-06T19:23:54;42.00;34.50;26.00
56495;PMS5003;42804;55.762;38.084;2022-08-06T19:26:29;47.50;39.75;28.00
56495;PMS5003;42804;55.762;38.084;2022-08-06T19:28:58;40.80;35.20;27.00
56495;PMS5003;42804;55.762;38.084;2022-08-06T19:31:28;41.50;36.25;25.00
56495;PMS5003;42804;55.762;38.084;2022-08-06T19:34:09;44.00;37.75;27.50
56495;PMS5003;42804;55.762;38.084;2022-08-06T19:36:41;45.00;37.75;27.00
56495;PMS5003;42804;55.762;38.084;2022-08-06T19:39:11;41.75;35.25;24.25
56495;PMS5003;42804;55.762;38.084;2022-08-06T19:42:00;46.75;39.00;26.50
56495;PMS5003;42804;55.762;38.084;2022-08-06T19:44:29;39.25;35.00;24.00
56495;PMS5003;42804;55.762;38.084;2022-08-06T19:47:18;45.60;37.20;26.00
56495;PMS5003;42804;55.762;38.084;2022-08-06T19:49:47;47.00;39.00;27.00
56495;PMS5003;42804;55.762;38.084;2022-08-06T19:52:18;43.50;37.75;26.75
56495;PMS5003;42804;55.762;38.084;2022-08-06T19:54:53;46.80;40.40;27.00
56495;PMS5003;42804;55.762;38.084;2022-08-06T19:57:22;45.20;40.00;27.80
56495;PMS5003;42804;55.762;38.084;2022-08-06T19:59:56;46.50;39.25;28.50
56495;PMS5003;42804;55.762;38.084;2022-08-06T20:02:44;36.50;34.00;24.00
56495;PMS5003;42804;55.762;38.084;2022-08-06T20:05:18;34.00;32.75;23.00
56495;PMS5003;42804;55.762;38.084;2022-08-06T20:08:07;40.25;35.50;25.75
56495;PMS5003;42804;55.762;38.084;2022-08-06T20:10:57;44.20;38.00;27.00
56495;PMS5003;42804;55.762;38.084;2022-08-06T20:13:27;39.75;35.50;25.00
56495;PMS5003;42804;55.762;38.084;2022-08-06T20:15:59;44.80;38.80;26.80
56495;PMS5003;42804;55.762;38.084;2022-08-06T20:18:28;44.20;39.00;29.00
56495;PMS5003;42804;55.762;38.084;2022-08-06T20:20:56;54.80;45.80;30.80
56495;PMS5003;42804;55.762;38.084;2022-08-06T20:23:26;52.25;43.50;30.00
56495;PMS5003;42804;55.762;38.084;2022-08-06T20:26:07;50.40;42.60;28.20
56495;PMS5003;42804;55.762;38.084;2022-08-06T20:28:56;50.20;41.40;29.80
56495;PMS5003;42804;55.762;38.084;2022-08-06T20:31:45;49.67;39.33;28.00
56495;PMS5003;42804;55.762;38.084;2022-08-06T20:34:21;50.00;41.25;27.75
56495;PMS5003;42804;55.762;38.084;2022-08-06T20:36:55;48.20;41.20;29.00
56495;PMS5003;42804;55.762;38.084;2022-08-06T20:39:24;51.40;43.00;29.40
56495;PMS5003;42804;55.762;38.084;2022-08-06T20:41:54;48.00;40.60;28.20
56495;PMS5003;42804;55.762;38.084;2022-08-06T20:44:33;43.50;37.00;23.50
56495;PMS5003;42804;55.762;38.084;2022-08-06T20:47:02;47.00;40.00;27.50
56495;PMS5003;42804;55.762;38.084;2022-08-06T20:49:51;42.75;37.75;26.50
56495;PMS5003;42804;55.762;38.084;2022-08-06T20:52:30;42.75;37.00;27.00
56495;PMS5003;42804;55.762;38.084;2022-08-06T20:54:59;49.75;42.75;28.50
56495;PMS5003;42804;55.762;38.084;2022-08-06T20:57:31;44.50;38.75;25.75
56495;PMS5003;42804;55.762;38.084;2022-08-06T21:00:12;46.00;38.50;27.50